NCAR-RAP Real-Time Weather Data

Output produced by METARs form (30 April 2017  15:06 UTC)
found at http://weather.rap.ucar.edu/surface/
 
Conditions at: KINF observed 30 April 2017  14:55 UTC
Temperature: 28.0°C (82°F)
Dewpoint: 21.0°C (70°F) [RH = 66%]
Pressure (altimeter): 30.12 inches Hg (1020.1 mb)
Winds: from the SSE (150 degrees) at 16 MPH (14 knots; 7.3 m/s)
gusting to 21 MPH (18 knots; 9.4 m/s)
Visibility: 10 or more miles (16+ km)
Ceiling: at least 12,000 feet AGL
Clouds: scattered clouds at 2800 feet AGL
scattered clouds at 3400 feet AGL
Present Weather: automated observation with no human augmentation;
there may or may not be significant weather present at this time
KINF 301455Z AUTO 15014G18KT 10SM SCT028 SCT034 28/21 A3012 RMK AO2

Conditions at: KINF observed 30 April 2017  14:35 UTC
Temperature: 28.0°C (82°F)
Dewpoint: 21.0°C (70°F) [RH = 66%]
Pressure (altimeter): 30.11 inches Hg (1019.7 mb)
Winds: from the SSE (160 degrees) at 15 MPH (13 knots; 6.8 m/s)
gusting to 18 MPH (16 knots; 8.3 m/s)
Visibility: 10 or more miles (16+ km)
Ceiling: at least 12,000 feet AGL
Clouds: scattered clouds at 2400 feet AGL
Present Weather: automated observation with no human augmentation;
there may or may not be significant weather present at this time
KINF 301435Z AUTO 16013G16KT 10SM SCT024 28/21 A3011 RMK AO2

Conditions at: KINF observed 30 April 2017  14:15 UTC
Temperature: 27.0°C (81°F)
Dewpoint: 21.0°C (70°F) [RH = 70%]
Pressure (altimeter): 30.11 inches Hg (1019.7 mb)
Winds: from the SSE (150 degrees) at 13 MPH (11 knots; 5.7 m/s)
gusting to 18 MPH (16 knots; 8.3 m/s)
Visibility: 10 or more miles (16+ km)
Ceiling: at least 12,000 feet AGL
Clouds: scattered clouds at 2200 feet AGL
scattered clouds at 2700 feet AGL
Present Weather: automated observation with no human augmentation;
there may or may not be significant weather present at this time
KINF 301415Z AUTO 15011G16KT 10SM SCT022 SCT027 27/21 A3011 RMK AO2

Conditions at: KINF observed 30 April 2017  13:55 UTC
Temperature: 26.0°C (79°F)
Dewpoint: 21.0°C (70°F) [RH = 74%]
Pressure (altimeter): 30.11 inches Hg (1019.7 mb)
Winds: from the SE (140 degrees) at 10 MPH (9 knots; 4.7 m/s)
gusting to 20 MPH (17 knots; 8.8 m/s)
Visibility: 10 or more miles (16+ km)
Ceiling: at least 12,000 feet AGL
Clouds: scattered clouds at 1900 feet AGL
Present Weather: automated observation with no human augmentation;
there may or may not be significant weather present at this time
KINF 301355Z AUTO 14009G17KT 100V160 10SM SCT019 26/21 A3011 RMK AO2

Conditions at: KINF observed 30 April 2017  13:35 UTC
Temperature: 25.0°C (77°F)
Dewpoint: 21.0°C (70°F) [RH = 79%]
Pressure (altimeter): 30.11 inches Hg (1019.7 mb)
Winds: from the SSE (150 degrees) at 15 MPH (13 knots; 6.8 m/s)
gusting to 21 MPH (18 knots; 9.4 m/s)
Visibility: 10 or more miles (16+ km)
Ceiling: at least 12,000 feet AGL
Clouds: scattered clouds at 1800 feet AGL
Present Weather: automated observation with no human augmentation;
there may or may not be significant weather present at this time
KINF 301335Z AUTO 15013G18KT 10SM SCT018 25/21 A3011 RMK AO2

Conditions at: KINF observed 30 April 2017  13:15 UTC
Temperature: 25.0°C (77°F)
Dewpoint: 21.0°C (70°F) [RH = 79%]
Pressure (altimeter): 30.11 inches Hg (1019.7 mb)
Winds: from the SSE (160 degrees) at 10 MPH (9 knots; 4.7 m/s)
gusting to 23 MPH (20 knots; 10.4 m/s)
Visibility: 10 or more miles (16+ km)
Ceiling: at least 12,000 feet AGL
Clouds: scattered clouds at 1600 feet AGL
Present Weather: automated observation with no human augmentation;
there may or may not be significant weather present at this time
KINF 301315Z AUTO 16009G20KT 10SM SCT016 25/21 A3011 RMK AO2

Conditions at: KINF observed 30 April 2017  12:55 UTC
Temperature: 25.0°C (77°F)
Dewpoint: 22.0°C (72°F) [RH = 83%]
Pressure (altimeter): 30.11 inches Hg (1019.7 mb)
Winds: from the SSE (150 degrees) at 13 MPH (11 knots; 5.7 m/s)
gusting to 20 MPH (17 knots; 8.8 m/s)
Visibility: 10 or more miles (16+ km)
Ceiling: at least 12,000 feet AGL
Clouds: scattered clouds at 1400 feet AGL
Present Weather: automated observation with no human augmentation;
there may or may not be significant weather present at this time
KINF 301255Z AUTO 15011G17KT 10SM SCT014 25/22 A3011 RMK AO2

Conditions at: KINF observed 30 April 2017  12:35 UTC
Temperature: 24.0°C (75°F)
Dewpoint: 22.0°C (72°F) [RH = 89%]
Pressure (altimeter): 30.11 inches Hg (1019.7 mb)
Winds: from the SSE (150 degrees) at 9 MPH (8 knots; 4.2 m/s)
Visibility: 10 or more miles (16+ km)
Ceiling: at least 12,000 feet AGL
Clouds: sky clear below 12,000 feet AGL
Present Weather: automated observation with no human augmentation;
there may or may not be significant weather present at this time
KINF 301235Z AUTO 15008KT 10SM CLR 24/22 A3011 RMK AO2

Conditions at: KINF observed 30 April 2017  12:15 UTC
Temperature: 23.0°C (73°F)
Dewpoint: 22.0°C (72°F) [RH = 94%]
Pressure (altimeter): 30.11 inches Hg (1019.7 mb)
Winds: from the SE (140 degrees) at 8 MPH (7 knots; 3.6 m/s)
Visibility: 10 or more miles (16+ km)
Ceiling: at least 12,000 feet AGL
Clouds: sky clear below 12,000 feet AGL
Present Weather: automated observation with no human augmentation;
there may or may not be significant weather present at this time
KINF 301215Z AUTO 14007KT 10SM CLR 23/22 A3011 RMK AO2

Conditions at: KINF observed 30 April 2017  11:55 UTC
Temperature: 23.0°C (73°F)
Dewpoint: 22.0°C (72°F) [RH = 94%]
Pressure (altimeter): 30.12 inches Hg (1020.1 mb)
Winds: from the SE (130 degrees) at 7 MPH (6 knots; 3.1 m/s)
Visibility: 10 or more miles (16+ km)
Ceiling: at least 12,000 feet AGL
Clouds: sky clear below 12,000 feet AGL
Present Weather: automated observation with no human augmentation;
there may or may not be significant weather present at this time
KINF 301155Z AUTO 13006KT 10SM CLR 23/22 A3012 RMK AO2

Conditions at: KINF observed 30 April 2017  11:35 UTC
Temperature: 22.0°C (72°F)
Dewpoint: 22.0°C (72°F) [RH = 100%]
Pressure (altimeter): 30.12 inches Hg (1020.1 mb)
Winds: from the SE (140 degrees) at 5 MPH (4 knots; 2.1 m/s)
Visibility: 10 or more miles (16+ km)
Ceiling: at least 12,000 feet AGL
Clouds: sky clear below 12,000 feet AGL
Present Weather: automated observation with no human augmentation;
there may or may not be significant weather present at this time
KINF 301135Z AUTO 14004KT 10SM CLR 22/22 A3012 RMK AO2

Conditions at: KINF observed 30 April 2017  11:15 UTC
Temperature: 22.0°C (72°F)
Dewpoint: 22.0°C (72°F) [RH = 100%]
Pressure (altimeter): 30.12 inches Hg (1020.1 mb)
Winds: from the ESE (120 degrees) at 5 MPH (4 knots; 2.1 m/s)
Visibility: 10 or more miles (16+ km)
Ceiling: at least 12,000 feet AGL
Clouds: sky clear below 12,000 feet AGL
Present Weather: automated observation with no human augmentation;
there may or may not be significant weather present at this time
KINF 301115Z AUTO 12004KT 10SM CLR 22/22 A3012 RMK AO2

Conditions at: KINF observed 30 April 2017  10:55 UTC
Temperature: 22.0°C (72°F)
Dewpoint: 22.0°C (72°F) [RH = 100%]
Pressure (altimeter): 30.12 inches Hg (1020.1 mb)
Winds: from the SE (130 degrees) at 3 MPH (3 knots; 1.6 m/s)
Visibility: 10 or more miles (16+ km)
Ceiling: at least 12,000 feet AGL
Clouds: sky clear below 12,000 feet AGL
Present Weather: automated observation with no human augmentation;
there may or may not be significant weather present at this time
KINF 301055Z AUTO 13003KT 10SM CLR 22/22 A3012 RMK AO2

Conditions at: KINF observed 30 April 2017  10:35 UTC
Temperature: 22.0°C (72°F)
Dewpoint: 22.0°C (72°F) [RH = 100%]
Pressure (altimeter): 30.12 inches Hg (1020.1 mb)
Winds: from the SE (130 degrees) at 3 MPH (3 knots; 1.6 m/s)
Visibility: 10 or more miles (16+ km)
Ceiling: at least 12,000 feet AGL
Clouds: sky clear below 12,000 feet AGL
Present Weather: automated observation with no human augmentation;
there may or may not be significant weather present at this time
KINF 301035Z AUTO 13003KT 10SM CLR 22/22 A3012 RMK AO2

Conditions at: KINF observed 30 April 2017  10:15 UTC
Temperature: 22.0°C (72°F)
Dewpoint: 22.0°C (72°F) [RH = 100%]
Pressure (altimeter): 30.12 inches Hg (1020.1 mb)
Winds: calm
Visibility: 10 or more miles (16+ km)
Ceiling: at least 12,000 feet AGL
Clouds: scattered clouds at 1700 feet AGL
scattered clouds at 2400 feet AGL
Present Weather: automated observation with no human augmentation;
there may or may not be significant weather present at this time
KINF 301015Z AUTO 00000KT 10SM SCT017 SCT024 22/22 A3012 RMK AO2

Conditions at: KINF observed 30 April 2017  09:55 UTC
Temperature: 22.0°C (72°F)
Dewpoint: 22.0°C (72°F) [RH = 100%]
Pressure (altimeter): 30.11 inches Hg (1019.7 mb)
Winds: calm
Visibility: 10 or more miles (16+ km)
Ceiling: at least 12,000 feet AGL
Clouds: scattered clouds at 1700 feet AGL
scattered clouds at 2400 feet AGL
Present Weather: automated observation with no human augmentation;
there may or may not be significant weather present at this time
KINF 300955Z AUTO 00000KT 10SM SCT017 SCT024 22/22 A3011 RMK AO2

Conditions at: KINF observed 30 April 2017  09:35 UTC
Temperature: 22.0°C (72°F)
Dewpoint: 22.0°C (72°F) [RH = 100%]
Pressure (altimeter): 30.11 inches Hg (1019.7 mb)
Winds: from the SE (130 degrees) at 3 MPH (3 knots; 1.6 m/s)
Visibility: 10 or more miles (16+ km)
Ceiling: at least 12,000 feet AGL
Clouds: sky clear below 12,000 feet AGL
Present Weather: automated observation with no human augmentation;
there may or may not be significant weather present at this time
KINF 300935Z AUTO 13003KT 10SM CLR 22/22 A3011 RMK AO2

Conditions at: KINF observed 30 April 2017  09:15 UTC
Temperature: 22.0°C (72°F)
Dewpoint: 22.0°C (72°F) [RH = 100%]
Pressure (altimeter): 30.11 inches Hg (1019.7 mb)
Winds: from the ESE (120 degrees) at 3 MPH (3 knots; 1.6 m/s)
Visibility: 10 or more miles (16+ km)
Ceiling: at least 12,000 feet AGL
Clouds: sky clear below 12,000 feet AGL
Present Weather: automated observation with no human augmentation;
there may or may not be significant weather present at this time
KINF 300915Z AUTO 12003KT 10SM CLR 22/22 A3011 RMK AO2

Conditions at: KINF observed 30 April 2017  08:55 UTC
Temperature: 22.0°C (72°F)
Dewpoint: 22.0°C (72°F) [RH = 100%]
Pressure (altimeter): 30.11 inches Hg (1019.7 mb)
Winds: from the SE (130 degrees) at 5 MPH (4 knots; 2.1 m/s)
Visibility: 10 or more miles (16+ km)
Ceiling: at least 12,000 feet AGL
Clouds: scattered clouds at 1400 feet AGL
Present Weather: automated observation with no human augmentation;
there may or may not be significant weather present at this time
KINF 300855Z AUTO 13004KT 10SM SCT014 22/22 A3011 RMK AO2

Conditions at: KINF observed 30 April 2017  08:35 UTC
Temperature: 22.0°C (72°F)
Dewpoint: 22.0°C (72°F) [RH = 100%]
Pressure (altimeter): 30.11 inches Hg (1019.7 mb)
Winds: from the SE (130 degrees) at 5 MPH (4 knots; 2.1 m/s)
Visibility: 10 or more miles (16+ km)
Ceiling: 1200 feet AGL
Clouds: broken clouds at 1200 feet AGL
Present Weather: automated observation with no human augmentation;
there may or may not be significant weather present at this time
KINF 300835Z AUTO 13004KT 10SM BKN012 22/22 A3011 RMK AO2

Conditions at: KINF observed 30 April 2017  08:15 UTC
Temperature: 22.0°C (72°F)
Dewpoint: 22.0°C (72°F) [RH = 100%]
Pressure (altimeter): 30.11 inches Hg (1019.7 mb)
Winds: from the ESE (110 degrees) at 5 MPH (4 knots; 2.1 m/s)
Visibility: 10 or more miles (16+ km)
Ceiling: 1200 feet AGL
Clouds: overcast cloud deck at 1200 feet AGL
Present Weather: automated observation with no human augmentation;
there may or may not be significant weather present at this time
KINF 300815Z AUTO 11004KT 10SM OVC012 22/22 A3011 RMK AO2

Conditions at: KINF observed 30 April 2017  07:55 UTC
Temperature: 22.0°C (72°F)
Dewpoint: 22.0°C (72°F) [RH = 100%]
Pressure (altimeter): 30.11 inches Hg (1019.7 mb)
Winds: from the ESE (120 degrees) at 3 MPH (3 knots; 1.6 m/s)
Visibility: 10 or more miles (16+ km)
Ceiling: 1200 feet AGL
Clouds: broken clouds at 1200 feet AGL
Present Weather: automated observation with no human augmentation;
there may or may not be significant weather present at this time
KINF 300755Z AUTO 12003KT 10SM BKN012 22/22 A3011 RMK AO2

Conditions at: KINF observed 30 April 2017  07:35 UTC
Temperature: 23.0°C (73°F)
Dewpoint: 22.0°C (72°F) [RH = 94%]
Pressure (altimeter): 30.10 inches Hg (1019.4 mb)
Winds: from the ESE (120 degrees) at 3 MPH (3 knots; 1.6 m/s)
Visibility: 10 or more miles (16+ km)
Ceiling: 1200 feet AGL
Clouds: broken clouds at 1200 feet AGL
Present Weather: automated observation with no human augmentation;
there may or may not be significant weather present at this time
KINF 300735Z AUTO 12003KT 10SM BKN012 23/22 A3010 RMK AO2

Conditions at: KINF observed 30 April 2017  07:15 UTC
Temperature: 23.0°C (73°F)
Dewpoint: 22.0°C (72°F) [RH = 94%]
Pressure (altimeter): 30.10 inches Hg (1019.4 mb)
Winds: from the SE (130 degrees) at 3 MPH (3 knots; 1.6 m/s)
Visibility: 10 or more miles (16+ km)
Ceiling: 1400 feet AGL
Clouds: broken clouds at 1400 feet AGL
Present Weather: automated observation with no human augmentation;
there may or may not be significant weather present at this time
KINF 300715Z AUTO 13003KT 10SM BKN014 23/22 A3010 RMK AO2

Conditions at: KINF observed 30 April 2017  06:55 UTC
Temperature: 23.0°C (73°F)
Dewpoint: 22.0°C (72°F) [RH = 94%]
Pressure (altimeter): 30.10 inches Hg (1019.4 mb)
Winds: from the SE (130 degrees) at 5 MPH (4 knots; 2.1 m/s)
Visibility: 10 or more miles (16+ km)
Ceiling: at least 12,000 feet AGL
Clouds: scattered clouds at 1400 feet AGL
Present Weather: automated observation with no human augmentation;
there may or may not be significant weather present at this time
KINF 300655Z AUTO 13004KT 10SM SCT014 23/22 A3010 RMK AO2

Conditions at: KINF observed 30 April 2017  06:35 UTC
Temperature: 23.0°C (73°F)
Dewpoint: 22.0°C (72°F) [RH = 94%]
Pressure (altimeter): 30.11 inches Hg (1019.7 mb)
Winds: from the SE (140 degrees) at 3 MPH (3 knots; 1.6 m/s)
Visibility: 10 or more miles (16+ km)
Ceiling: at least 12,000 feet AGL
Clouds: scattered clouds at 1600 feet AGL
Present Weather: automated observation with no human augmentation;
there may or may not be significant weather present at this time
KINF 300635Z AUTO 14003KT 10SM SCT016 23/22 A3011 RMK AO2

Conditions at: KINF observed 30 April 2017  06:15 UTC
Temperature: 23.0°C (73°F)
Dewpoint: 22.0°C (72°F) [RH = 94%]
Pressure (altimeter): 30.11 inches Hg (1019.7 mb)
Winds: from the SE (140 degrees) at 5 MPH (4 knots; 2.1 m/s)
Visibility: 10 or more miles (16+ km)
Ceiling: at least 12,000 feet AGL
Clouds: scattered clouds at 1600 feet AGL
Present Weather: automated observation with no human augmentation;
there may or may not be significant weather present at this time
KINF 300615Z AUTO 14004KT 10SM SCT016 23/22 A3011 RMK AO2

Conditions at: KINF observed 30 April 2017  05:55 UTC
Temperature: 23.0°C (73°F)
Dewpoint: 22.0°C (72°F) [RH = 94%]
Pressure (altimeter): 30.10 inches Hg (1019.4 mb)
Winds: from the SE (130 degrees) at 5 MPH (4 knots; 2.1 m/s)
Visibility: 10 or more miles (16+ km)
Ceiling: at least 12,000 feet AGL
Clouds: sky clear below 12,000 feet AGL
Present Weather: automated observation with no human augmentation;
there may or may not be significant weather present at this time
KINF 300555Z AUTO 13004KT 10SM CLR 23/22 A3010 RMK AO2

Conditions at: KINF observed 30 April 2017  05:35 UTC
Temperature: 23.0°C (73°F)
Dewpoint: 21.0°C (70°F) [RH = 89%]
Pressure (altimeter): 30.11 inches Hg (1019.7 mb)
Winds: from the ESE (120 degrees) at 6 MPH (5 knots; 2.6 m/s)
Visibility: 10 or more miles (16+ km)
Ceiling: at least 12,000 feet AGL
Clouds: sky clear below 12,000 feet AGL
Present Weather: automated observation with no human augmentation;
there may or may not be significant weather present at this time
KINF 300535Z AUTO 12005KT 10SM CLR 23/21 A3011 RMK AO2

Conditions at: KINF observed 30 April 2017  05:15 UTC
Temperature: 23.0°C (73°F)
Dewpoint: 21.0°C (70°F) [RH = 89%]
Pressure (altimeter): 30.11 inches Hg (1019.7 mb)
Winds: from the SE (130 degrees) at 5 MPH (4 knots; 2.1 m/s)
Visibility: 10 or more miles (16+ km)
Ceiling: at least 12,000 feet AGL
Clouds: sky clear below 12,000 feet AGL
Present Weather: automated observation with no human augmentation;
there may or may not be significant weather present at this time
KINF 300515Z AUTO 13004KT 10SM CLR 23/21 A3011 RMK AO2

Conditions at: KINF observed 30 April 2017  04:55 UTC
Temperature: 23.0°C (73°F)
Dewpoint: 21.0°C (70°F) [RH = 89%]
Pressure (altimeter): 30.11 inches Hg (1019.7 mb)
Winds: from the SE (130 degrees) at 7 MPH (6 knots; 3.1 m/s)
Visibility: 10 or more miles (16+ km)
Ceiling: at least 12,000 feet AGL
Clouds: sky clear below 12,000 feet AGL
Present Weather: automated observation with no human augmentation;
there may or may not be significant weather present at this time
KINF 300455Z AUTO 13006KT 10SM CLR 23/21 A3011 RMK AO2

Conditions at: KINF observed 30 April 2017  04:35 UTC
Temperature: 23.0°C (73°F)
Dewpoint: 21.0°C (70°F) [RH = 89%]
Pressure (altimeter): 30.12 inches Hg (1020.1 mb)
Winds: from the SE (130 degrees) at 8 MPH (7 knots; 3.6 m/s)
Visibility: 10 or more miles (16+ km)
Ceiling: at least 12,000 feet AGL
Clouds: sky clear below 12,000 feet AGL
Present Weather: automated observation with no human augmentation;
there may or may not be significant weather present at this time
KINF 300435Z AUTO 13007KT 10SM CLR 23/21 A3012 RMK AO2

Conditions at: KINF observed 30 April 2017  04:15 UTC
Temperature: 24.0°C (75°F)
Dewpoint: 21.0°C (70°F) [RH = 83%]
Pressure (altimeter): 30.12 inches Hg (1020.1 mb)
Winds: from the SE (130 degrees) at 9 MPH (8 knots; 4.2 m/s)
Visibility: 10 or more miles (16+ km)
Ceiling: at least 12,000 feet AGL
Clouds: sky clear below 12,000 feet AGL
Present Weather: automated observation with no human augmentation;
there may or may not be significant weather present at this time
KINF 300415Z AUTO 13008KT 10SM CLR 24/21 A3012 RMK AO2

Conditions at: KINF observed 30 April 2017  03:55 UTC
Temperature: 24.0°C (75°F)
Dewpoint: 21.0°C (70°F) [RH = 83%]
Pressure (altimeter): 30.12 inches Hg (1020.1 mb)
Winds: from the SE (130 degrees) at 8 MPH (7 knots; 3.6 m/s)
Visibility: 10 or more miles (16+ km)
Ceiling: at least 12,000 feet AGL
Clouds: sky clear below 12,000 feet AGL
Present Weather: automated observation with no human augmentation;
there may or may not be significant weather present at this time
KINF 300355Z AUTO 13007KT 10SM CLR 24/21 A3012 RMK AO2

Conditions at: KINF observed 30 April 2017  03:35 UTC
Temperature: 25.0°C (77°F)
Dewpoint: 21.0°C (70°F) [RH = 79%]
Pressure (altimeter): 30.12 inches Hg (1020.1 mb)
Winds: from the SE (130 degrees) at 9 MPH (8 knots; 4.2 m/s)
Visibility: 10 or more miles (16+ km)
Ceiling: at least 12,000 feet AGL
Clouds: sky clear below 12,000 feet AGL
Present Weather: automated observation with no human augmentation;
there may or may not be significant weather present at this time
KINF 300335Z AUTO 13008KT 10SM CLR 25/21 A3012 RMK AO2

Conditions at: KINF observed 30 April 2017  03:15 UTC
Temperature: 25.0°C (77°F)
Dewpoint: 21.0°C (70°F) [RH = 79%]
Pressure (altimeter): 30.12 inches Hg (1020.1 mb)
Winds: from the ESE (120 degrees) at 8 MPH (7 knots; 3.6 m/s)
Visibility: 10 or more miles (16+ km)
Ceiling: at least 12,000 feet AGL
Clouds: sky clear below 12,000 feet AGL
Present Weather: automated observation with no human augmentation;
there may or may not be significant weather present at this time
KINF 300315Z AUTO 12007KT 10SM CLR 25/21 A3012 RMK AO2

Conditions at: KINF observed 30 April 2017  02:55 UTC
Temperature: 25.0°C (77°F)
Dewpoint: 21.0°C (70°F) [RH = 79%]
Pressure (altimeter): 30.11 inches Hg (1019.7 mb)
Winds: from the SE (130 degrees) at 8 MPH (7 knots; 3.6 m/s)
Visibility: 10 or more miles (16+ km)
Ceiling: at least 12,000 feet AGL
Clouds: sky clear below 12,000 feet AGL
Present Weather: automated observation with no human augmentation;
there may or may not be significant weather present at this time
KINF 300255Z AUTO 13007KT 10SM CLR 25/21 A3011 RMK AO2

Conditions at: KINF observed 30 April 2017  02:35 UTC
Temperature: 25.0°C (77°F)
Dewpoint: 20.0°C (68°F) [RH = 74%]
Pressure (altimeter): 30.12 inches Hg (1020.1 mb)
Winds: from the ESE (120 degrees) at 6 MPH (5 knots; 2.6 m/s)
Visibility: 10 or more miles (16+ km)
Ceiling: at least 12,000 feet AGL
Clouds: sky clear below 12,000 feet AGL
Present Weather: automated observation with no human augmentation;
there may or may not be significant weather present at this time
KINF 300235Z AUTO 12005KT 10SM CLR 25/20 A3012 RMK AO2

Conditions at: KINF observed 30 April 2017  02:15 UTC
Temperature: 26.0°C (79°F)
Dewpoint: 20.0°C (68°F) [RH = 70%]
Pressure (altimeter): 30.11 inches Hg (1019.7 mb)
Winds: from the ESE (110 degrees) at 6 MPH (5 knots; 2.6 m/s)
Visibility: 10 or more miles (16+ km)
Ceiling: at least 12,000 feet AGL
Clouds: sky clear below 12,000 feet AGL
Present Weather: automated observation with no human augmentation;
there may or may not be significant weather present at this time
KINF 300215Z AUTO 11005KT 10SM CLR 26/20 A3011 RMK AO2

Conditions at: KINF observed 30 April 2017  01:55 UTC
Temperature: 26.0°C (79°F)
Dewpoint: 20.0°C (68°F) [RH = 70%]
Pressure (altimeter): 30.11 inches Hg (1019.7 mb)
Winds: from the ESE (110 degrees) at 5 MPH (4 knots; 2.1 m/s)
Visibility: 10 or more miles (16+ km)
Ceiling: at least 12,000 feet AGL
Clouds: sky clear below 12,000 feet AGL
Present Weather: automated observation with no human augmentation;
there may or may not be significant weather present at this time
KINF 300155Z AUTO 11004KT 10SM CLR 26/20 A3011 RMK AO2

Conditions at: KINF observed 30 April 2017  01:35 UTC
Temperature: 26.0°C (79°F)
Dewpoint: 20.0°C (68°F) [RH = 70%]
Pressure (altimeter): 30.10 inches Hg (1019.4 mb)
Winds: from the E (100 degrees) at 7 MPH (6 knots; 3.1 m/s)
Visibility: 10 or more miles (16+ km)
Ceiling: at least 12,000 feet AGL
Clouds: sky clear below 12,000 feet AGL
Present Weather: automated observation with no human augmentation;
there may or may not be significant weather present at this time
KINF 300135Z AUTO 10006KT 10SM CLR 26/20 A3010 RMK AO2

Conditions at: KINF observed 30 April 2017  01:15 UTC
Temperature: 27.0°C (81°F)
Dewpoint: 19.0°C (66°F) [RH = 62%]
Pressure (altimeter): 30.10 inches Hg (1019.4 mb)
Winds: from the ESE (110 degrees) at 7 MPH (6 knots; 3.1 m/s)
Visibility: 10 or more miles (16+ km)
Ceiling: at least 12,000 feet AGL
Clouds: sky clear below 12,000 feet AGL
Present Weather: automated observation with no human augmentation;
there may or may not be significant weather present at this time
KINF 300115Z AUTO 11006KT 10SM CLR 27/19 A3010 RMK AO2

Conditions at: KINF observed 30 April 2017  00:55 UTC
Temperature: 27.0°C (81°F)
Dewpoint: 19.0°C (66°F) [RH = 62%]
Pressure (altimeter): 30.09 inches Hg (1019.0 mb)
Winds: from the ESE (110 degrees) at 6 MPH (5 knots; 2.6 m/s)
Visibility: 10 or more miles (16+ km)
Ceiling: at least 12,000 feet AGL
Clouds: sky clear below 12,000 feet AGL
Present Weather: automated observation with no human augmentation;
there may or may not be significant weather present at this time
KINF 300055Z AUTO 11005KT 10SM CLR 27/19 A3009 RMK AO2

Conditions at: KINF observed 30 April 2017  00:35 UTC
Temperature: 28.0°C (82°F)
Dewpoint: 19.0°C (66°F) [RH = 58%]
Pressure (altimeter): 30.09 inches Hg (1019.0 mb)
Winds: from the E (100 degrees) at 8 MPH (7 knots; 3.6 m/s)
Visibility: 10 or more miles (16+ km)
Ceiling: at least 12,000 feet AGL
Clouds: sky clear below 12,000 feet AGL
Present Weather: automated observation with no human augmentation;
there may or may not be significant weather present at this time
KINF 300035Z AUTO 10007KT 10SM CLR 28/19 A3009 RMK AO2

Conditions at: KINF observed 30 April 2017  00:15 UTC
Temperature: 28.0°C (82°F)
Dewpoint: 18.0°C (64°F) [RH = 55%]
Pressure (altimeter): 30.08 inches Hg (1018.7 mb)
Winds: from the E (90 degrees) at 8 MPH (7 knots; 3.6 m/s)
Visibility: 10 or more miles (16+ km)
Ceiling: at least 12,000 feet AGL
Clouds: sky clear below 12,000 feet AGL
Present Weather: automated observation with no human augmentation;
there may or may not be significant weather present at this time
KINF 300015Z AUTO 09007KT 060V120 10SM CLR 28/18 A3008 RMK AO2

Conditions at: KINF observed 29 April 2017  23:55 UTC
Temperature: 29.0°C (84°F)
Dewpoint: 18.0°C (64°F) [RH = 52%]
Pressure (altimeter): 30.07 inches Hg (1018.4 mb)
Winds: from the E (100 degrees) at 5 MPH (4 knots; 2.1 m/s)
Visibility: 10 or more miles (16+ km)
Ceiling: at least 12,000 feet AGL
Clouds: sky clear below 12,000 feet AGL
Present Weather: automated observation with no human augmentation;
there may or may not be significant weather present at this time
KINF 292355Z AUTO 10004KT 10SM CLR 29/18 A3007 RMK AO2

Conditions at: KINF observed 29 April 2017  23:35 UTC
Temperature: 30.0°C (86°F)
Dewpoint: 18.0°C (64°F) [RH = 49%]
Pressure (altimeter): 30.07 inches Hg (1018.4 mb)
Winds: from the E (90 degrees) at 6 MPH (5 knots; 2.6 m/s)
Visibility: 10 or more miles (16+ km)
Ceiling: at least 12,000 feet AGL
Clouds: sky clear below 12,000 feet AGL
Present Weather: automated observation with no human augmentation;
there may or may not be significant weather present at this time
KINF 292335Z AUTO 09005KT 10SM CLR 30/18 A3007 RMK AO2

Conditions at: KINF observed 29 April 2017  23:15 UTC
Temperature: 31.0°C (88°F)
Dewpoint: 18.0°C (64°F) [RH = 46%]
Pressure (altimeter): 30.06 inches Hg (1018.0 mb)
Winds: from the E (100 degrees) at 6 MPH (5 knots; 2.6 m/s)
Visibility: 10 or more miles (16+ km)
Ceiling: at least 12,000 feet AGL
Clouds: sky clear below 12,000 feet AGL
Present Weather: automated observation with no human augmentation;
there may or may not be significant weather present at this time
KINF 292315Z AUTO 10005KT 10SM CLR 31/18 A3006 RMK AO2

Conditions at: KINF observed 29 April 2017  22:55 UTC
Temperature: 31.0°C (88°F)
Dewpoint: 18.0°C (64°F) [RH = 46%]
Pressure (altimeter): 30.06 inches Hg (1018.0 mb)
Winds: from the E (100 degrees) at 8 MPH (7 knots; 3.6 m/s)
Visibility: 10 or more miles (16+ km)
Ceiling: at least 12,000 feet AGL
Clouds: sky clear below 12,000 feet AGL
Present Weather: automated observation with no human augmentation;
there may or may not be significant weather present at this time
KINF 292255Z AUTO 10007KT 10SM CLR 31/18 A3006 RMK AO2

Conditions at: KINF observed 29 April 2017  22:35 UTC
Temperature: 32.0°C (90°F)
Dewpoint: 17.0°C (63°F) [RH = 41%]
Pressure (altimeter): 30.06 inches Hg (1018.0 mb)
Winds: from the E (90 degrees) at 9 MPH (8 knots; 4.2 m/s)
Visibility: 10 or more miles (16+ km)
Ceiling: at least 12,000 feet AGL
Clouds: sky clear below 12,000 feet AGL
Present Weather: automated observation with no human augmentation;
there may or may not be significant weather present at this time
KINF 292235Z AUTO 09008KT 10SM CLR 32/17 A3006 RMK AO2

Conditions at: KINF observed 29 April 2017  22:15 UTC
Temperature: 33.0°C (91°F)
Dewpoint: 18.0°C (64°F) [RH = 41%]
Pressure (altimeter): 30.06 inches Hg (1018.0 mb)
Winds: from the E (100 degrees) at 9 MPH (8 knots; 4.2 m/s)
Visibility: 10 or more miles (16+ km)
Ceiling: at least 12,000 feet AGL
Clouds: scattered clouds at 9500 feet AGL
Present Weather: automated observation with no human augmentation;
there may or may not be significant weather present at this time
KINF 292215Z AUTO 10008KT 10SM SCT095 33/18 A3006 RMK AO2

Conditions at: KINF observed 29 April 2017  21:55 UTC
Temperature: 33.0°C (91°F)
Dewpoint: 18.0°C (64°F) [RH = 41%]
Pressure (altimeter): 30.06 inches Hg (1018.0 mb)
Winds: from the ESE (110 degrees) at 8 MPH (7 knots; 3.6 m/s)
Visibility: 10 or more miles (16+ km)
Ceiling: 9500 feet AGL
Clouds: scattered clouds at 8000 feet AGL
overcast cloud deck at 9500 feet AGL
Present Weather: automated observation with no human augmentation;
there may or may not be significant weather present at this time
KINF 292155Z AUTO 11007KT 10SM SCT080 OVC095 33/18 A3006 RMK AO2

Conditions at: KINF observed 29 April 2017  21:35 UTC
Temperature: 32.0°C (90°F)
Dewpoint: 18.0°C (64°F) [RH = 43%]
Pressure (altimeter): 30.07 inches Hg (1018.4 mb)
Winds: from the E (90 degrees) at 8 MPH (7 knots; 3.6 m/s)
Visibility: 10 or more miles (16+ km)
Ceiling: 7000 feet AGL
Clouds: broken clouds at 7000 feet AGL
broken clouds at 9500 feet AGL
Present Weather: automated observation with no human augmentation;
there may or may not be significant weather present at this time
KINF 292135Z AUTO 09007KT 10SM BKN070 BKN095 32/18 A3007 RMK AO2

Conditions at: KINF observed 29 April 2017  21:15 UTC
Temperature: 32.0°C (90°F)
Dewpoint: 18.0°C (64°F) [RH = 43%]
Pressure (altimeter): 30.06 inches Hg (1018.0 mb)
Winds: from the E (80 degrees) at 7 MPH (6 knots; 3.1 m/s)
Visibility: 10 or more miles (16+ km)
Ceiling: 7000 feet AGL
Clouds: broken clouds at 7000 feet AGL
broken clouds at 9500 feet AGL
Present Weather: automated observation with no human augmentation;
there may or may not be significant weather present at this time
KINF 292115Z AUTO 08006KT 10SM BKN070 BKN095 32/18 A3006 RMK AO2

Conditions at: KINF observed 29 April 2017  20:55 UTC
Temperature: 33.0°C (91°F)
Dewpoint: 18.0°C (64°F) [RH = 41%]
Pressure (altimeter): 30.07 inches Hg (1018.4 mb)
Winds: from the ESE (120 degrees) at 8 MPH (7 knots; 3.6 m/s)
Visibility: 10 or more miles (16+ km)
Ceiling: 9500 feet AGL
Clouds: broken clouds at 9500 feet AGL
Present Weather: automated observation with no human augmentation;
there may or may not be significant weather present at this time
KINF 292055Z AUTO 12007KT 10SM BKN095 33/18 A3007 RMK AO2

Conditions at: KINF observed 29 April 2017  20:35 UTC
Temperature: 33.0°C (91°F)
Dewpoint: 18.0°C (64°F) [RH = 41%]
Pressure (altimeter): 30.07 inches Hg (1018.4 mb)
Winds: from the ESE (120 degrees) at 9 MPH (8 knots; 4.2 m/s)
Visibility: 10 or more miles (16+ km)
Ceiling: 9500 feet AGL
Clouds: scattered clouds at 7000 feet AGL
broken clouds at 9500 feet AGL
Present Weather: automated observation with no human augmentation;
there may or may not be significant weather present at this time
KINF 292035Z AUTO 12008KT 10SM SCT070 BKN095 33/18 A3007 RMK AO2

Conditions at: KINF observed 29 April 2017  20:15 UTC
Temperature: 33.0°C (91°F)
Dewpoint: 18.0°C (64°F) [RH = 41%]
Pressure (altimeter): 30.08 inches Hg (1018.7 mb)
Winds: from the SE (140 degrees) at 9 MPH (8 knots; 4.2 m/s)
gusting to 18 MPH (16 knots; 8.3 m/s)
Visibility: 10 or more miles (16+ km)
Ceiling: 9500 feet AGL
Clouds: scattered clouds at 7000 feet AGL
broken clouds at 9500 feet AGL
Present Weather: automated observation with no human augmentation;
there may or may not be significant weather present at this time
KINF 292015Z AUTO 14008G16KT 10SM SCT070 BKN095 33/18 A3008 RMK AO2

Conditions at: KINF observed 29 April 2017  19:55 UTC
Temperature: 35.0°C (95°F)
Dewpoint: 18.0°C (64°F) [RH = 37%]
Pressure (altimeter): 30.08 inches Hg (1018.7 mb)
Winds: from the ESE (110 degrees) at 6 MPH (5 knots; 2.6 m/s)
Visibility: 10 or more miles (16+ km)
Ceiling: at least 12,000 feet AGL
Clouds: scattered clouds at 9500 feet AGL
Present Weather: automated observation with no human augmentation;
there may or may not be significant weather present at this time
KINF 291955Z AUTO 11005KT 10SM SCT095 35/18 A3008 RMK AO2

Conditions at: KINF observed 29 April 2017  19:35 UTC
Temperature: 34.0°C (93°F)
Dewpoint: 18.0°C (64°F) [RH = 39%]
Pressure (altimeter): 30.09 inches Hg (1019.0 mb)
Winds: from the SE (140 degrees) at 8 MPH (7 knots; 3.6 m/s)
gusting to 16 MPH (14 knots; 7.3 m/s)
Visibility: 10 or more miles (16+ km)
Ceiling: at least 12,000 feet AGL
Clouds: scattered clouds at 7000 feet AGL
scattered clouds at 8500 feet AGL
Present Weather: automated observation with no human augmentation;
there may or may not be significant weather present at this time
KINF 291935Z AUTO 14007G14KT 10SM SCT070 SCT085 34/18 A3009 RMK AO2

Conditions at: KINF observed 29 April 2017  19:15 UTC
Temperature: 33.0°C (91°F)
Dewpoint: 17.0°C (63°F) [RH = 39%]
Pressure (altimeter): 30.09 inches Hg (1019.0 mb)
Winds: from the ESE (120 degrees) at 8 MPH (7 knots; 3.6 m/s)
Visibility: 10 or more miles (16+ km)
Ceiling: at least 12,000 feet AGL
Clouds: sky clear below 12,000 feet AGL
Present Weather: automated observation with no human augmentation;
there may or may not be significant weather present at this time
KINF 291915Z AUTO 12007KT 10SM CLR 33/17 A3009 RMK AO2

Conditions at: KINF observed 29 April 2017  18:55 UTC
Temperature: 35.0°C (95°F)
Dewpoint: 18.0°C (64°F) [RH = 37%]
Pressure (altimeter): 30.10 inches Hg (1019.4 mb)
Winds: from the SE (140 degrees) at 14 MPH (12 knots; 6.2 m/s)
gusting to 20 MPH (17 knots; 8.8 m/s)
Visibility: 10 or more miles (16+ km)
Ceiling: at least 12,000 feet AGL
Clouds: scattered clouds at 6500 feet AGL
Present Weather: automated observation with no human augmentation;
there may or may not be significant weather present at this time
KINF 291855Z AUTO 14012G17KT 100V160 10SM SCT065 35/18 A3010 RMK AO2

Conditions at: KINF observed 29 April 2017  18:35 UTC
Temperature: 35.0°C (95°F)
Dewpoint: 18.0°C (64°F) [RH = 37%]
Pressure (altimeter): 30.11 inches Hg (1019.7 mb)
Winds: from the SSE (160 degrees) at 9 MPH (8 knots; 4.2 m/s)
gusting to 20 MPH (17 knots; 8.8 m/s)
Visibility: 10 or more miles (16+ km)
Ceiling: at least 12,000 feet AGL
Clouds: scattered clouds at 7000 feet AGL
scattered clouds at 8000 feet AGL
Present Weather: automated observation with no human augmentation;
there may or may not be significant weather present at this time
KINF 291835Z AUTO 16008G17KT 10SM SCT070 SCT080 35/18 A3011 RMK AO2

Conditions at: KINF observed 29 April 2017  18:15 UTC
Temperature: 34.0°C (93°F)
Dewpoint: 18.0°C (64°F) [RH = 39%]
Pressure (altimeter): 30.11 inches Hg (1019.7 mb)
Winds: from the E (100 degrees) at 9 MPH (8 knots; 4.2 m/s)
Visibility: 10 or more miles (16+ km)
Ceiling: at least 12,000 feet AGL
Clouds: scattered clouds at 7000 feet AGL
scattered clouds at 8000 feet AGL
Present Weather: automated observation with no human augmentation;
there may or may not be significant weather present at this time
KINF 291815Z AUTO 10008KT 10SM SCT070 SCT080 34/18 A3011 RMK AO2

Conditions at: KINF observed 29 April 2017  17:55 UTC
Temperature: 34.0°C (93°F)
Dewpoint: 18.0°C (64°F) [RH = 39%]
Pressure (altimeter): 30.12 inches Hg (1020.1 mb)
Winds: from the SSE (150 degrees) at 12 MPH (10 knots; 5.2 m/s)
gusting to 18 MPH (16 knots; 8.3 m/s)
Visibility: 10 or more miles (16+ km)
Ceiling: at least 12,000 feet AGL
Clouds: scattered clouds at 5000 feet AGL
Present Weather: automated observation with no human augmentation;
there may or may not be significant weather present at this time
KINF 291755Z AUTO 15010G16KT 10SM SCT050 34/18 A3012 RMK AO2

Conditions at: KINF observed 29 April 2017  17:35 UTC
Temperature: 32.0°C (90°F)
Dewpoint: 19.0°C (66°F) [RH = 46%]
Pressure (altimeter): 30.13 inches Hg (1020.4 mb)
Winds: from the SE (140 degrees) at 12 MPH (10 knots; 5.2 m/s)
gusting to 17 MPH (15 knots; 7.8 m/s)
Visibility: 10 or more miles (16+ km)
Ceiling: at least 12,000 feet AGL
Clouds: scattered clouds at 5000 feet AGL
scattered clouds at 6500 feet AGL
Present Weather: automated observation with no human augmentation;
there may or may not be significant weather present at this time
KINF 291735Z AUTO 14010G15KT 10SM SCT050 SCT065 32/19 A3013 RMK AO2

Conditions at: KINF observed 29 April 2017  17:15 UTC
Temperature: 32.0°C (90°F)
Dewpoint: 20.0°C (68°F) [RH = 49%]
Pressure (altimeter): 30.13 inches Hg (1020.4 mb)
Winds: from the ESE (110 degrees) at 9 MPH (8 knots; 4.2 m/s)
Visibility: 10 or more miles (16+ km)
Ceiling: 5000 feet AGL
Clouds: broken clouds at 5000 feet AGL
Present Weather: automated observation with no human augmentation;
there may or may not be significant weather present at this time
KINF 291715Z AUTO 11008KT 080V160 10SM BKN050 32/20 A3013 RMK AO2

Conditions at: KINF observed 29 April 2017  16:55 UTC
Temperature: 32.0°C (90°F)
Dewpoint: 20.0°C (68°F) [RH = 49%]
Pressure (altimeter): 30.14 inches Hg (1020.7 mb)
Winds: from the ESE (120 degrees) at 9 MPH (8 knots; 4.2 m/s)
Visibility: 10 or more miles (16+ km)
Ceiling: at least 12,000 feet AGL
Clouds: scattered clouds at 5000 feet AGL
Present Weather: automated observation with no human augmentation;
there may or may not be significant weather present at this time
KINF 291655Z AUTO 12008KT 10SM SCT050 32/20 A3014 RMK AO2

Conditions at: KINF observed 29 April 2017  16:35 UTC
Temperature: 32.0°C (90°F)
Dewpoint: 20.0°C (68°F) [RH = 49%]
Pressure (altimeter): 30.15 inches Hg (1021.1 mb)
Winds: from the ESE (120 degrees) at 8 MPH (7 knots; 3.6 m/s)
Visibility: 10 or more miles (16+ km)
Ceiling: at least 12,000 feet AGL
Clouds: scattered clouds at 5000 feet AGL
Present Weather: automated observation with no human augmentation;
there may or may not be significant weather present at this time
KINF 291635Z AUTO 12007KT 10SM SCT050 32/20 A3015 RMK AO2

Conditions at: KINF observed 29 April 2017  16:15 UTC
Temperature: 31.0°C (88°F)
Dewpoint: 21.0°C (70°F) [RH = 55%]
Pressure (altimeter): 30.15 inches Hg (1021.1 mb)
Winds: from the SSE (150 degrees) at 13 MPH (11 knots; 5.7 m/s)
gusting to 17 MPH (15 knots; 7.8 m/s)
Visibility: 10 or more miles (16+ km)
Ceiling: at least 12,000 feet AGL
Clouds: sky clear below 12,000 feet AGL
Present Weather: automated observation with no human augmentation;
there may or may not be significant weather present at this time
KINF 291615Z AUTO 15011G15KT 10SM CLR 31/21 A3015 RMK AO2

Conditions at: KINF observed 29 April 2017  15:55 UTC
Temperature: 31.0°C (88°F)
Dewpoint: 21.0°C (70°F) [RH = 55%]
Pressure (altimeter): 30.15 inches Hg (1021.1 mb)
Winds: from the ESE (120 degrees) at 10 MPH (9 knots; 4.7 m/s)
Visibility: 10 or more miles (16+ km)
Ceiling: at least 12,000 feet AGL
Clouds: scattered clouds at 3700 feet AGL
scattered clouds at 4600 feet AGL
Present Weather: automated observation with no human augmentation;
there may or may not be significant weather present at this time
KINF 291555Z AUTO 12009KT 100V160 10SM SCT037 SCT046 31/21 A3015 RMK AO2

Conditions at: KINF observed 29 April 2017  15:35 UTC
Temperature: 30.0°C (86°F)
Dewpoint: 21.0°C (70°F) [RH = 59%]
Pressure (altimeter): 30.16 inches Hg (1021.4 mb)
Winds: from the SE (130 degrees) at 9 MPH (8 knots; 4.2 m/s)
Visibility: 10 or more miles (16+ km)
Ceiling: 3300 feet AGL
Clouds: broken clouds at 3300 feet AGL
broken clouds at 4000 feet AGL
Present Weather: automated observation with no human augmentation;
there may or may not be significant weather present at this time
KINF 291535Z AUTO 13008KT 10SM BKN033 BKN040 30/21 A3016 RMK AO2

Conditions at: KINF observed 29 April 2017  15:15 UTC
Temperature: 30.0°C (86°F)
Dewpoint: 22.0°C (72°F) [RH = 62%]
Pressure (altimeter): 30.16 inches Hg (1021.4 mb)
Winds: from the SE (140 degrees) at 8 MPH (7 knots; 3.6 m/s)
gusting to 17 MPH (15 knots; 7.8 m/s)
Visibility: 10 or more miles (16+ km)
Ceiling: 3300 feet AGL
Clouds: broken clouds at 3300 feet AGL
Present Weather: automated observation with no human augmentation;
there may or may not be significant weather present at this time
KINF 291515Z AUTO 14007G15KT 10SM BKN033 30/22 A3016 RMK AO2

Conditions at: KINF observed 29 April 2017  14:55 UTC
Temperature: 29.0°C (84°F)
Dewpoint: 21.0°C (70°F) [RH = 62%]
Pressure (altimeter): 30.15 inches Hg (1021.1 mb)
Winds: from the SSE (160 degrees) at 10 MPH (9 knots; 4.7 m/s)
gusting to 17 MPH (15 knots; 7.8 m/s)
Visibility: 10 or more miles (16+ km)
Ceiling: at least 12,000 feet AGL
Clouds: scattered clouds at 3100 feet AGL
Present Weather: automated observation with no human augmentation;
there may or may not be significant weather present at this time
KINF 291455Z AUTO 16009G15KT 10SM SCT031 29/21 A3015 RMK AO2

Conditions at: KINF observed 29 April 2017  14:35 UTC
Temperature: 28.0°C (82°F)
Dewpoint: 22.0°C (72°F) [RH = 70%]
Pressure (altimeter): 30.15 inches Hg (1021.1 mb)
Winds: from the SSE (150 degrees) at 9 MPH (8 knots; 4.2 m/s)
gusting to 17 MPH (15 knots; 7.8 m/s)
Visibility: 10 or more miles (16+ km)
Ceiling: at least 12,000 feet AGL
Clouds: scattered clouds at 2700 feet AGL
Present Weather: automated observation with no human augmentation;
there may or may not be significant weather present at this time
KINF 291435Z AUTO 15008G15KT 10SM SCT027 28/22 A3015 RMK AO2

Conditions at: KINF observed 29 April 2017  14:15 UTC
Temperature: 28.0°C (82°F)
Dewpoint: 22.0°C (72°F) [RH = 70%]
Pressure (altimeter): 30.15 inches Hg (1021.1 mb)
Winds: from the SSE (150 degrees) at 12 MPH (10 knots; 5.2 m/s)
gusting to 20 MPH (17 knots; 8.8 m/s)
Visibility: 10 or more miles (16+ km)
Ceiling: at least 12,000 feet AGL
Clouds: scattered clouds at 2700 feet AGL
Present Weather: automated observation with no human augmentation;
there may or may not be significant weather present at this time
KINF 291415Z AUTO 15010G17KT 10SM SCT027 28/22 A3015 RMK AO2

Conditions at: KINF observed 29 April 2017  13:55 UTC
Temperature: 28.0°C (82°F)
Dewpoint: 22.0°C (72°F) [RH = 70%]
Pressure (altimeter): 30.15 inches Hg (1021.1 mb)
Winds: from the SSE (150 degrees) at 14 MPH (12 knots; 6.2 m/s)
gusting to 22 MPH (19 knots; 9.9 m/s)
Visibility: 10 or more miles (16+ km)
Ceiling: at least 12,000 feet AGL
Clouds: scattered clouds at 300 feet AGL
scattered clouds at 2000 feet AGL
scattered clouds at 2700 feet AGL
Present Weather: automated observation with no human augmentation;
there may or may not be significant weather present at this time
KINF 291355Z AUTO 15012G19KT 10SM SCT003 SCT020 SCT027 28/22 A3015 RMK AO2

Conditions at: KINF observed 29 April 2017  13:35 UTC
Temperature: 27.0°C (81°F)
Dewpoint: 22.0°C (72°F) [RH = 74%]
Pressure (altimeter): 30.15 inches Hg (1021.1 mb)
Winds: from the SSE (160 degrees) at 12 MPH (10 knots; 5.2 m/s)
Visibility: 10 or more miles (16+ km)
Ceiling: 1800 feet AGL
Clouds: broken clouds at 1800 feet AGL
Present Weather: automated observation with no human augmentation;
there may or may not be significant weather present at this time
KINF 291335Z AUTO 16010KT 10SM BKN018 27/22 A3015 RMK AO2

Conditions at: KINF observed 29 April 2017  13:15 UTC
Temperature: 26.0°C (79°F)
Dewpoint: 22.0°C (72°F) [RH = 79%]
Pressure (altimeter): 30.16 inches Hg (1021.4 mb)
Winds: from the SSE (150 degrees) at 10 MPH (9 knots; 4.7 m/s)
gusting to 16 MPH (14 knots; 7.3 m/s)
Visibility: 10 or more miles (16+ km)
Ceiling: 1300 feet AGL
Clouds: broken clouds at 1300 feet AGL
broken clouds at 1900 feet AGL
Present Weather: automated observation with no human augmentation;
there may or may not be significant weather present at this time
KINF 291315Z AUTO 15009G14KT 10SM BKN013 BKN019 26/22 A3016 RMK AO2

Conditions at: KINF observed 29 April 2017  12:55 UTC
Temperature: 25.0°C (77°F)
Dewpoint: 23.0°C (73°F) [RH = 89%]
Pressure (altimeter): 30.15 inches Hg (1021.1 mb)
Winds: from the SE (130 degrees) at 7 MPH (6 knots; 3.1 m/s)
Visibility: 10 or more miles (16+ km)
Ceiling: 900 feet AGL
Clouds: broken clouds at 900 feet AGL
Present Weather: automated observation with no human augmentation;
there may or may not be significant weather present at this time
KINF 291255Z AUTO 13006KT 10SM BKN009 25/23 A3015 RMK AO2

Conditions at: KINF observed 29 April 2017  12:35 UTC
Temperature: 24.0°C (75°F)
Dewpoint: 23.0°C (73°F) [RH = 94%]
Pressure (altimeter): 30.15 inches Hg (1021.1 mb)
Winds: from the SE (140 degrees) at 6 MPH (5 knots; 2.6 m/s)
Visibility: 10 or more miles (16+ km)
Ceiling: 700 feet AGL
Clouds: overcast cloud deck at 700 feet AGL
Present Weather: automated observation with no human augmentation;
there may or may not be significant weather present at this time
KINF 291235Z AUTO 14005KT 10SM OVC007 24/23 A3015 RMK AO2

Conditions at: KINF observed 29 April 2017  12:15 UTC
Temperature: 23.0°C (73°F)
Dewpoint: 23.0°C (73°F) [RH = 100%]
Pressure (altimeter): 30.15 inches Hg (1021.1 mb)
Winds: from the SSE (160 degrees) at 6 MPH (5 knots; 2.6 m/s)
Visibility: 7 miles (11 km)
Ceiling: 500 feet AGL
Clouds: overcast cloud deck at 500 feet AGL
Present Weather: automated observation with no human augmentation;
there may or may not be significant weather present at this time
KINF 291215Z AUTO 16005KT 7SM OVC005 23/23 A3015 RMK AO2

Conditions at: KINF observed 29 April 2017  11:55 UTC
Temperature: 22.0°C (72°F)
Dewpoint: 22.0°C (72°F) [RH = 100%]
Pressure (altimeter): 30.14 inches Hg (1020.7 mb)
Winds: from the SE (130 degrees) at 3 MPH (3 knots; 1.6 m/s)
Visibility: 7 miles (11 km)
Ceiling: 500 feet AGL
Clouds: overcast cloud deck at 500 feet AGL
Present Weather: automated observation with no human augmentation;
there may or may not be significant weather present at this time
KINF 291155Z AUTO 13003KT 7SM OVC005 22/22 A3014 RMK AO2

Conditions at: KINF observed 29 April 2017  11:35 UTC
Temperature: 22.0°C (72°F)
Dewpoint: 22.0°C (72°F) [RH = 100%]
Pressure (altimeter): 30.14 inches Hg (1020.7 mb)
Winds: calm
Visibility: 5 miles (8 km)
Ceiling: 500 feet AGL
Clouds: broken clouds at 500 feet AGL
Present Weather: BR  (mist)
KINF 291135Z AUTO 00000KT 5SM BR BKN005 22/22 A3014 RMK AO2

Conditions at: KINF observed 29 April 2017  11:15 UTC
Temperature: 22.0°C (72°F)
Dewpoint: 22.0°C (72°F) [RH = 100%]
Pressure (altimeter): 30.14 inches Hg (1020.7 mb)
Winds: calm
Visibility: 5 miles (8 km)
Ceiling: 500 feet AGL
Clouds: broken clouds at 500 feet AGL
Present Weather: BR  (mist)
KINF 291115Z AUTO 00000KT 5SM BR BKN005 22/22 A3014 RMK AO2

Conditions at: KINF observed 29 April 2017  10:55 UTC
Temperature: 22.0°C (72°F)
Dewpoint: 22.0°C (72°F) [RH = 100%]
Pressure (altimeter): 30.13 inches Hg (1020.4 mb)
Winds: from the SE (140 degrees) at 3 MPH (3 knots; 1.6 m/s)
Visibility: 5 miles (8 km)
Ceiling: 500 feet AGL
Clouds: overcast cloud deck at 500 feet AGL
Present Weather: BR  (mist)
KINF 291055Z AUTO 14003KT 5SM BR OVC005 22/22 A3013 RMK AO2

Conditions at: KINF observed 29 April 2017  10:35 UTC
Temperature: 22.0°C (72°F)
Dewpoint: 22.0°C (72°F) [RH = 100%]
Pressure (altimeter): 30.13 inches Hg (1020.4 mb)
Winds: from the SSE (150 degrees) at 3 MPH (3 knots; 1.6 m/s)
Visibility: 7 miles (11 km)
Ceiling: 500 feet AGL
Clouds: broken clouds at 500 feet AGL
broken clouds at 1400 feet AGL
Present Weather: automated observation with no human augmentation;
there may or may not be significant weather present at this time
KINF 291035Z AUTO 15003KT 7SM BKN005 BKN014 22/22 A3013 RMK AO2

Conditions at: KINF observed 29 April 2017  10:15 UTC
Temperature: 21.0°C (70°F)
Dewpoint: 21.0°C (70°F) [RH = 100%]
Pressure (altimeter): 30.12 inches Hg (1020.1 mb)
Winds: calm
Visibility: 7 miles (11 km)
Ceiling: 500 feet AGL
Clouds: broken clouds at 500 feet AGL
Present Weather: automated observation with no human augmentation;
there may or may not be significant weather present at this time
KINF 291015Z AUTO 00000KT 7SM BKN005 21/21 A3012 RMK AO2

Conditions at: KINF observed 29 April 2017  09:55 UTC
Temperature: 21.0°C (70°F)
Dewpoint: 21.0°C (70°F) [RH = 100%]
Pressure (altimeter): 30.11 inches Hg (1019.7 mb)
Winds: calm
Visibility: 7 miles (11 km)
Ceiling: 700 feet AGL
Clouds: broken clouds at 700 feet AGL
Present Weather: automated observation with no human augmentation;
there may or may not be significant weather present at this time
KINF 290955Z AUTO 00000KT 7SM BKN007 21/21 A3011 RMK AO2

Conditions at: KINF observed 29 April 2017  09:35 UTC
Temperature: 21.0°C (70°F)
Dewpoint: 21.0°C (70°F) [RH = 100%]
Pressure (altimeter): 30.11 inches Hg (1019.7 mb)
Winds: calm
Visibility: 7 miles (11 km)
Ceiling: at least 12,000 feet AGL
Clouds: sky clear below 12,000 feet AGL
Present Weather: automated observation with no human augmentation;
there may or may not be significant weather present at this time
KINF 290935Z AUTO 00000KT 7SM CLR 21/21 A3011 RMK AO2

Conditions at: KINF observed 29 April 2017  09:15 UTC
Temperature: 21.0°C (70°F)
Dewpoint: 21.0°C (70°F) [RH = 100%]
Pressure (altimeter): 30.11 inches Hg (1019.7 mb)
Winds: calm
Visibility: 10 or more miles (16+ km)
Ceiling: at least 12,000 feet AGL
Clouds: sky clear below 12,000 feet AGL
Present Weather: automated observation with no human augmentation;
there may or may not be significant weather present at this time
KINF 290915Z AUTO 00000KT 10SM CLR 21/21 A3011 RMK AO2

Conditions at: KINF observed 29 April 2017  08:55 UTC
Temperature: 21.0°C (70°F)
Dewpoint: 21.0°C (70°F) [RH = 100%]
Pressure (altimeter): 30.11 inches Hg (1019.7 mb)
Winds: calm
Visibility: 10 or more miles (16+ km)
Ceiling: at least 12,000 feet AGL
Clouds: sky clear below 12,000 feet AGL
Present Weather: automated observation with no human augmentation;
there may or may not be significant weather present at this time
KINF 290855Z AUTO 00000KT 10SM CLR 21/21 A3011 RMK AO2

Conditions at: KINF observed 29 April 2017  08:35 UTC
Temperature: 22.0°C (72°F)
Dewpoint: 21.0°C (70°F) [RH = 94%]
Pressure (altimeter): 30.11 inches Hg (1019.7 mb)
Winds: calm
Visibility: 10 or more miles (16+ km)
Ceiling: at least 12,000 feet AGL
Clouds: sky clear below 12,000 feet AGL
Present Weather: automated observation with no human augmentation;
there may or may not be significant weather present at this time
KINF 290835Z AUTO 00000KT 10SM CLR 22/21 A3011 RMK AO2

Conditions at: KINF observed 29 April 2017  08:15 UTC
Temperature: 21.0°C (70°F)
Dewpoint: 21.0°C (70°F) [RH = 100%]
Pressure (altimeter): 30.11 inches Hg (1019.7 mb)
Winds: calm
Visibility: 10 or more miles (16+ km)
Ceiling: at least 12,000 feet AGL
Clouds: sky clear below 12,000 feet AGL
Present Weather: automated observation with no human augmentation;
there may or may not be significant weather present at this time
KINF 290815Z AUTO 00000KT 10SM CLR 21/21 A3011 RMK AO2

Conditions at: KINF observed 29 April 2017  07:55 UTC
Temperature: 22.0°C (72°F)
Dewpoint: 21.0°C (70°F) [RH = 94%]
Pressure (altimeter): 30.11 inches Hg (1019.7 mb)
Winds: calm
Visibility: 10 or more miles (16+ km)
Ceiling: at least 12,000 feet AGL
Clouds: sky clear below 12,000 feet AGL
Present Weather: automated observation with no human augmentation;
there may or may not be significant weather present at this time
KINF 290755Z AUTO 00000KT 10SM CLR 22/21 A3011 RMK AO2

Conditions at: KINF observed 29 April 2017  07:35 UTC
Temperature: 22.0°C (72°F)
Dewpoint: 21.0°C (70°F) [RH = 94%]
Pressure (altimeter): 30.11 inches Hg (1019.7 mb)
Winds: from the ESE (120 degrees) at 3 MPH (3 knots; 1.6 m/s)
Visibility: 10 or more miles (16+ km)
Ceiling: at least 12,000 feet AGL
Clouds: sky clear below 12,000 feet AGL
Present Weather: automated observation with no human augmentation;
there may or may not be significant weather present at this time
KINF 290735Z AUTO 12003KT 10SM CLR 22/21 A3011 RMK AO2

Conditions at: KINF observed 29 April 2017  07:15 UTC
Temperature: 22.0°C (72°F)
Dewpoint: 21.0°C (70°F) [RH = 94%]
Pressure (altimeter): 30.11 inches Hg (1019.7 mb)
Winds: from the ESE (120 degrees) at 3 MPH (3 knots; 1.6 m/s)
Visibility: 10 or more miles (16+ km)
Ceiling: at least 12,000 feet AGL
Clouds: sky clear below 12,000 feet AGL
Present Weather: automated observation with no human augmentation;
there may or may not be significant weather present at this time
KINF 290715Z AUTO 12003KT 10SM CLR 22/21 A3011 RMK AO2

Conditions at: KINF observed 29 April 2017  06:55 UTC
Temperature: 22.0°C (72°F)
Dewpoint: 21.0°C (70°F) [RH = 94%]
Pressure (altimeter): 30.11 inches Hg (1019.7 mb)
Winds: calm
Visibility: 10 or more miles (16+ km)
Ceiling: at least 12,000 feet AGL
Clouds: sky clear below 12,000 feet AGL
Present Weather: automated observation with no human augmentation;
there may or may not be significant weather present at this time
KINF 290655Z AUTO 00000KT 10SM CLR 22/21 A3011 RMK AO2

Conditions at: KINF observed 29 April 2017  06:35 UTC
Temperature: 22.0°C (72°F)
Dewpoint: 21.0°C (70°F) [RH = 94%]
Pressure (altimeter): 30.12 inches Hg (1020.1 mb)
Winds: from the SSE (150 degrees) at 3 MPH (3 knots; 1.6 m/s)
Visibility: 10 or more miles (16+ km)
Ceiling: at least 12,000 feet AGL
Clouds: sky clear below 12,000 feet AGL
Present Weather: automated observation with no human augmentation;
there may or may not be significant weather present at this time
KINF 290635Z AUTO 15003KT 10SM CLR 22/21 A3012 RMK AO2

Conditions at: KINF observed 29 April 2017  06:15 UTC
Temperature: 22.0°C (72°F)
Dewpoint: 21.0°C (70°F) [RH = 94%]
Pressure (altimeter): 30.12 inches Hg (1020.1 mb)
Winds: calm
Visibility: 10 or more miles (16+ km)
Ceiling: at least 12,000 feet AGL
Clouds: sky clear below 12,000 feet AGL
Present Weather: automated observation with no human augmentation;
there may or may not be significant weather present at this time
KINF 290615Z AUTO 00000KT 10SM CLR 22/21 A3012 RMK AO2

Conditions at: KINF observed 29 April 2017  05:55 UTC
Temperature: 23.0°C (73°F)
Dewpoint: 21.0°C (70°F) [RH = 89%]
Pressure (altimeter): 30.13 inches Hg (1020.4 mb)
Winds: calm
Visibility: 10 or more miles (16+ km)
Ceiling: at least 12,000 feet AGL
Clouds: sky clear below 12,000 feet AGL
Present Weather: automated observation with no human augmentation;
there may or may not be significant weather present at this time
KINF 290555Z AUTO 00000KT 10SM CLR 23/21 A3013 RMK AO2

Conditions at: KINF observed 29 April 2017  05:35 UTC
Temperature: 23.0°C (73°F)
Dewpoint: 21.0°C (70°F) [RH = 89%]
Pressure (altimeter): 30.13 inches Hg (1020.4 mb)
Winds: from the S (170 degrees) at 3 MPH (3 knots; 1.6 m/s)
Visibility: 10 or more miles (16+ km)
Ceiling: at least 12,000 feet AGL
Clouds: sky clear below 12,000 feet AGL
Present Weather: automated observation with no human augmentation;
there may or may not be significant weather present at this time
KINF 290535Z AUTO 17003KT 10SM CLR 23/21 A3013 RMK AO2

Conditions at: KINF observed 29 April 2017  05:15 UTC
Temperature: 25.0°C (77°F)
Dewpoint: 21.0°C (70°F) [RH = 79%]
Pressure (altimeter): 30.12 inches Hg (1020.1 mb)
Winds: from the SE (140 degrees) at 3 MPH (3 knots; 1.6 m/s)
Visibility: 10 or more miles (16+ km)
Ceiling: at least 12,000 feet AGL
Clouds: sky clear below 12,000 feet AGL
Present Weather: automated observation with no human augmentation;
there may or may not be significant weather present at this time
KINF 290515Z AUTO 14003KT 10SM CLR 25/21 A3012 RMK AO2

Conditions at: KINF observed 29 April 2017  04:55 UTC
Temperature: 25.0°C (77°F)
Dewpoint: 21.0°C (70°F) [RH = 79%]
Pressure (altimeter): 30.12 inches Hg (1020.1 mb)
Winds: from the SE (140 degrees) at 5 MPH (4 knots; 2.1 m/s)
Visibility: 10 or more miles (16+ km)
Ceiling: at least 12,000 feet AGL
Clouds: scattered clouds at 7500 feet AGL
Present Weather: automated observation with no human augmentation;
there may or may not be significant weather present at this time
KINF 290455Z AUTO 14004KT 10SM SCT075 25/21 A3012 RMK AO2

Conditions at: KINF observed 29 April 2017  04:35 UTC
Temperature: 25.0°C (77°F)
Dewpoint: 21.0°C (70°F) [RH = 79%]
Pressure (altimeter): 30.13 inches Hg (1020.4 mb)
Winds: from the SSE (150 degrees) at 3 MPH (3 knots; 1.6 m/s)
Visibility: 10 or more miles (16+ km)
Ceiling: 7500 feet AGL
Clouds: broken clouds at 7500 feet AGL
Present Weather: automated observation with no human augmentation;
there may or may not be significant weather present at this time
KINF 290435Z AUTO 15003KT 10SM BKN075 25/21 A3013 RMK AO2

Conditions at: KINF observed 29 April 2017  04:15 UTC
Temperature: 26.0°C (79°F)
Dewpoint: 21.0°C (70°F) [RH = 74%]
Pressure (altimeter): 30.12 inches Hg (1020.1 mb)
Winds: calm
Visibility: 10 or more miles (16+ km)
Ceiling: at least 12,000 feet AGL
Clouds: sky clear below 12,000 feet AGL
Present Weather: automated observation with no human augmentation;
there may or may not be significant weather present at this time
KINF 290415Z AUTO 00000KT 10SM CLR 26/21 A3012 RMK AO2

Conditions at: KINF observed 29 April 2017  03:55 UTC
Temperature: 26.0°C (79°F)
Dewpoint: 20.0°C (68°F) [RH = 70%]
Pressure (altimeter): 30.11 inches Hg (1019.7 mb)
Winds: from the SSE (150 degrees) at 5 MPH (4 knots; 2.1 m/s)
Visibility: 10 or more miles (16+ km)
Ceiling: at least 12,000 feet AGL
Clouds: sky clear below 12,000 feet AGL
Present Weather: automated observation with no human augmentation;
there may or may not be significant weather present at this time
KINF 290355Z AUTO 15004KT 10SM CLR 26/20 A3011 RMK AO2

Conditions at: KINF observed 29 April 2017  03:35 UTC
Temperature: 26.0°C (79°F)
Dewpoint: 20.0°C (68°F) [RH = 70%]
Pressure (altimeter): 30.11 inches Hg (1019.7 mb)
Winds: from the SSE (150 degrees) at 3 MPH (3 knots; 1.6 m/s)
Visibility: 10 or more miles (16+ km)
Ceiling: at least 12,000 feet AGL
Clouds: sky clear below 12,000 feet AGL
Present Weather: automated observation with no human augmentation;
there may or may not be significant weather present at this time
KINF 290335Z AUTO 15003KT 10SM CLR 26/20 A3011 RMK AO2

Conditions at: KINF observed 29 April 2017  03:15 UTC
Temperature: 27.0°C (81°F)
Dewpoint: 20.0°C (68°F) [RH = 66%]
Pressure (altimeter): 30.11 inches Hg (1019.7 mb)
Winds: from the SSE (150 degrees) at 5 MPH (4 knots; 2.1 m/s)
Visibility: 10 or more miles (16+ km)
Ceiling: at least 12,000 feet AGL
Clouds: sky clear below 12,000 feet AGL
Present Weather: automated observation with no human augmentation;
there may or may not be significant weather present at this time
KINF 290315Z AUTO 15004KT 10SM CLR 27/20 A3011 RMK AO2

Conditions at: KINF observed 29 April 2017  02:55 UTC
Temperature: 27.0°C (81°F)
Dewpoint: 20.0°C (68°F) [RH = 66%]
Pressure (altimeter): 30.10 inches Hg (1019.4 mb)
Winds: from the SE (140 degrees) at 6 MPH (5 knots; 2.6 m/s)
Visibility: 10 or more miles (16+ km)
Ceiling: at least 12,000 feet AGL
Clouds: sky clear below 12,000 feet AGL
Present Weather: automated observation with no human augmentation;
there may or may not be significant weather present at this time
KINF 290255Z AUTO 14005KT 10SM CLR 27/20 A3010 RMK AO2

Conditions at: KINF observed 29 April 2017  02:35 UTC
Temperature: 26.0°C (79°F)
Dewpoint: 21.0°C (70°F) [RH = 74%]
Pressure (altimeter): 30.10 inches Hg (1019.4 mb)
Winds: from the SSE (160 degrees) at 6 MPH (5 knots; 2.6 m/s)
Visibility: 10 or more miles (16+ km)
Ceiling: at least 12,000 feet AGL
Clouds: sky clear below 12,000 feet AGL
Present Weather: automated observation with no human augmentation;
there may or may not be significant weather present at this time
KINF 290235Z AUTO 16005KT 10SM CLR 26/21 A3010 RMK AO2

Conditions at: KINF observed 29 April 2017  02:15 UTC
Temperature: 25.0°C (77°F)
Dewpoint: 22.0°C (72°F) [RH = 83%]
Pressure (altimeter): 30.09 inches Hg (1019.0 mb)
Winds: calm
Visibility: 10 or more miles (16+ km)
Ceiling: at least 12,000 feet AGL
Clouds: sky clear below 12,000 feet AGL
Present Weather: automated observation with no human augmentation;
there may or may not be significant weather present at this time
KINF 290215Z AUTO 00000KT 10SM CLR 25/22 A3009 RMK AO2

Conditions at: KINF observed 29 April 2017  01:55 UTC
Temperature: 26.0°C (79°F)
Dewpoint: 22.0°C (72°F) [RH = 79%]
Pressure (altimeter): 30.09 inches Hg (1019.0 mb)
Winds: calm
Visibility: 10 or more miles (16+ km)
Ceiling: at least 12,000 feet AGL
Clouds: sky clear below 12,000 feet AGL
Present Weather: automated observation with no human augmentation;
there may or may not be significant weather present at this time
KINF 290155Z AUTO 00000KT 10SM CLR 26/22 A3009 RMK AO2

Conditions at: KINF observed 29 April 2017  01:35 UTC
Temperature: 27.0°C (81°F)
Dewpoint: 22.0°C (72°F) [RH = 74%]
Pressure (altimeter): 30.08 inches Hg (1018.7 mb)
Winds: calm
Visibility: 10 or more miles (16+ km)
Ceiling: at least 12,000 feet AGL
Clouds: sky clear below 12,000 feet AGL
Present Weather: automated observation with no human augmentation;
there may or may not be significant weather present at this time
KINF 290135Z AUTO 00000KT 10SM CLR 27/22 A3008 RMK AO2

Conditions at: KINF observed 29 April 2017  01:15 UTC
Temperature: 27.0°C (81°F)
Dewpoint: 22.0°C (72°F) [RH = 74%]
Pressure (altimeter): 30.07 inches Hg (1018.4 mb)
Winds: calm
Visibility: 10 or more miles (16+ km)
Ceiling: at least 12,000 feet AGL
Clouds: sky clear below 12,000 feet AGL
Present Weather: automated observation with no human augmentation;
there may or may not be significant weather present at this time
KINF 290115Z AUTO 00000KT 10SM CLR 27/22 A3007 RMK AO2

Conditions at: KINF observed 29 April 2017  00:55 UTC
Temperature: 28.0°C (82°F)
Dewpoint: 22.0°C (72°F) [RH = 70%]
Pressure (altimeter): 30.06 inches Hg (1018.0 mb)
Winds: calm
Visibility: 10 or more miles (16+ km)
Ceiling: at least 12,000 feet AGL
Clouds: sky clear below 12,000 feet AGL
Present Weather: automated observation with no human augmentation;
there may or may not be significant weather present at this time
KINF 290055Z AUTO 00000KT 10SM CLR 28/22 A3006 RMK AO2

Conditions at: KINF observed 29 April 2017  00:35 UTC
Temperature: 28.0°C (82°F)
Dewpoint: 22.0°C (72°F) [RH = 70%]
Pressure (altimeter): 30.05 inches Hg (1017.7 mb)
Winds: calm
Visibility: 10 or more miles (16+ km)
Ceiling: at least 12,000 feet AGL
Clouds: scattered clouds at 7500 feet AGL
Present Weather: automated observation with no human augmentation;
there may or may not be significant weather present at this time
KINF 290035Z AUTO 00000KT 10SM SCT075 28/22 A3005 RMK AO2

Conditions at: KINF observed 29 April 2017  00:15 UTC
Temperature: 29.0°C (84°F)
Dewpoint: 22.0°C (72°F) [RH = 66%]
Pressure (altimeter): 30.04 inches Hg (1017.4 mb)
Winds: calm
Visibility: 10 or more miles (16+ km)
Ceiling: 8000 feet AGL
Clouds: broken clouds at 8000 feet AGL
Present Weather: automated observation with no human augmentation;
there may or may not be significant weather present at this time
KINF 290015Z AUTO 00000KT 10SM BKN080 29/22 A3004 RMK AO2

Conditions at: KINF observed 28 April 2017  23:55 UTC
Temperature: 30.0°C (86°F)
Dewpoint: 22.0°C (72°F) [RH = 62%]
Pressure (altimeter): 30.03 inches Hg (1017.0 mb)
Winds: calm
Visibility: 10 or more miles (16+ km)
Ceiling: 8000 feet AGL
Clouds: overcast cloud deck at 8000 feet AGL
Present Weather: automated observation with no human augmentation;
there may or may not be significant weather present at this time
KINF 282355Z AUTO 00000KT 10SM OVC080 30/22 A3003 RMK AO2

Conditions at: KINF observed 28 April 2017  23:35 UTC
Temperature: 31.0°C (88°F)
Dewpoint: 23.0°C (73°F) [RH = 63%]
Pressure (altimeter): 30.03 inches Hg (1017.0 mb)
Winds: from the WNW (290 degrees) at 5 MPH (4 knots; 2.1 m/s)
Visibility: 7 miles (11 km)
Ceiling: 8000 feet AGL
Clouds: broken clouds at 8000 feet AGL
Present Weather: automated observation with no human augmentation;
there may or may not be significant weather present at this time
KINF 282335Z AUTO 29004KT 7SM BKN080 31/23 A3003 RMK AO2

Conditions at: KINF observed 28 April 2017  23:15 UTC
Temperature: 31.0°C (88°F)
Dewpoint: 23.0°C (73°F) [RH = 63%]
Pressure (altimeter): 30.02 inches Hg (1016.7 mb)
Winds: calm
Visibility: 10 or more miles (16+ km)
Ceiling: at least 12,000 feet AGL
Clouds: scattered clouds at 8000 feet AGL
Present Weather: automated observation with no human augmentation;
there may or may not be significant weather present at this time
KINF 282315Z AUTO 00000KT 10SM SCT080 31/23 A3002 RMK AO2

Conditions at: KINF observed 28 April 2017  22:55 UTC
Temperature: 33.0°C (91°F)
Dewpoint: 22.0°C (72°F) [RH = 53%]
Pressure (altimeter): 30.02 inches Hg (1016.7 mb)
Winds: from the WNW (300 degrees) at 5 MPH (4 knots; 2.1 m/s)
Visibility: 10 or more miles (16+ km)
Ceiling: at least 12,000 feet AGL
Clouds: sky clear below 12,000 feet AGL
Present Weather: automated observation with no human augmentation;
there may or may not be significant weather present at this time
KINF 282255Z AUTO 30004KT 10SM CLR 33/22 A3002 RMK AO2

Conditions at: KINF observed 28 April 2017  22:35 UTC
Temperature: 35.0°C (95°F)
Dewpoint: 17.0°C (63°F) [RH = 34%]
Pressure (altimeter): 30.01 inches Hg (1016.3 mb)
Winds: from the SE (140 degrees) at 5 MPH (4 knots; 2.1 m/s)
Visibility: 7 miles (11 km)
Ceiling: at least 12,000 feet AGL
Clouds: sky clear below 12,000 feet AGL
Present Weather: automated observation with no human augmentation;
there may or may not be significant weather present at this time
KINF 282235Z AUTO 14004KT 7SM CLR 35/17 A3001 RMK AO2

Conditions at: KINF observed 28 April 2017  22:15 UTC
Temperature: 34.0°C (93°F)
Dewpoint: 17.0°C (63°F) [RH = 36%]
Pressure (altimeter): 30.01 inches Hg (1016.3 mb)
Winds: from the ESE (120 degrees) at 5 MPH (4 knots; 2.1 m/s)
Visibility: 10 or more miles (16+ km)
Ceiling: at least 12,000 feet AGL
Clouds: sky clear below 12,000 feet AGL
Present Weather: automated observation with no human augmentation;
there may or may not be significant weather present at this time
KINF 282215Z AUTO 12004KT 10SM CLR 34/17 A3001 RMK AO2

Conditions at: KINF observed 28 April 2017  21:55 UTC
Temperature: 35.0°C (95°F)
Dewpoint: 18.0°C (64°F) [RH = 37%]
Pressure (altimeter): 30.01 inches Hg (1016.3 mb)
Winds: from the ESE (110 degrees) at 10 MPH (9 knots; 4.7 m/s)
Visibility: 10 or more miles (16+ km)
Ceiling: at least 12,000 feet AGL
Clouds: sky clear below 12,000 feet AGL
Present Weather: automated observation with no human augmentation;
there may or may not be significant weather present at this time
KINF 282155Z AUTO 11009KT 10SM CLR 35/18 A3001 RMK AO2

Conditions at: KINF observed 28 April 2017  21:35 UTC
Temperature: 35.0°C (95°F)
Dewpoint: 18.0°C (64°F) [RH = 37%]
Pressure (altimeter): 30.01 inches Hg (1016.3 mb)
Winds: from the ESE (110 degrees) at 6 MPH (5 knots; 2.6 m/s)
Visibility: 10 or more miles (16+ km)
Ceiling: at least 12,000 feet AGL
Clouds: sky clear below 12,000 feet AGL
Present Weather: automated observation with no human augmentation;
there may or may not be significant weather present at this time
KINF 282135Z AUTO 11005KT 10SM CLR 35/18 A3001 RMK AO2

Conditions at: KINF observed 28 April 2017  21:15 UTC
Temperature: 35.0°C (95°F)
Dewpoint: 19.0°C (66°F) [RH = 39%]
Pressure (altimeter): 30.01 inches Hg (1016.3 mb)
Winds: from the ESE (110 degrees) at 8 MPH (7 knots; 3.6 m/s)
Visibility: 10 or more miles (16+ km)
Ceiling: at least 12,000 feet AGL
Clouds: sky clear below 12,000 feet AGL
Present Weather: automated observation with no human augmentation;
there may or may not be significant weather present at this time
KINF 282115Z AUTO 11007KT 10SM CLR 35/19 A3001 RMK AO2

Conditions at: KINF observed 28 April 2017  20:55 UTC
Temperature: 36.0°C (97°F)
Dewpoint: 19.0°C (66°F) [RH = 37%]
Pressure (altimeter): 30.01 inches Hg (1016.3 mb)
Winds: from the ESE (110 degrees) at 6 MPH (5 knots; 2.6 m/s)
Visibility: 7 miles (11 km)
Ceiling: at least 12,000 feet AGL
Clouds: sky clear below 12,000 feet AGL
Present Weather: automated observation with no human augmentation;
there may or may not be significant weather present at this time
KINF 282055Z AUTO 11005KT 7SM CLR 36/19 A3001 RMK AO2

Conditions at: KINF observed 28 April 2017  20:35 UTC
Temperature: 36.0°C (97°F)
Dewpoint: 19.0°C (66°F) [RH = 37%]
Pressure (altimeter): 30.01 inches Hg (1016.3 mb)
Winds: from the E (100 degrees) at 8 MPH (7 knots; 3.6 m/s)
Visibility: 10 or more miles (16+ km)
Ceiling: at least 12,000 feet AGL
Clouds: sky clear below 12,000 feet AGL
Present Weather: automated observation with no human augmentation;
there may or may not be significant weather present at this time
KINF 282035Z AUTO 10007KT 10SM CLR 36/19 A3001 RMK AO2

Conditions at: KINF observed 28 April 2017  20:15 UTC
Temperature: 36.0°C (97°F)
Dewpoint: 20.0°C (68°F) [RH = 39%]
Pressure (altimeter): 30.02 inches Hg (1016.7 mb)
Winds: from the ESE (120 degrees) at 9 MPH (8 knots; 4.2 m/s)
Visibility: 7 miles (11 km)
Ceiling: at least 12,000 feet AGL
Clouds: sky clear below 12,000 feet AGL
Present Weather: automated observation with no human augmentation;
there may or may not be significant weather present at this time
KINF 282015Z AUTO 12008KT 7SM CLR 36/20 A3002 RMK AO2

Conditions at: KINF observed 28 April 2017  19:55 UTC
Temperature: 35.0°C (95°F)
Dewpoint: 20.0°C (68°F) [RH = 42%]
Pressure (altimeter): 30.03 inches Hg (1017.0 mb)
Winds: from the S (170 degrees) at 8 MPH (7 knots; 3.6 m/s)
Visibility: 7 miles (11 km)
Ceiling: at least 12,000 feet AGL
Clouds: scattered clouds at 6500 feet AGL
scattered clouds at 9000 feet AGL
Present Weather: automated observation with no human augmentation;
there may or may not be significant weather present at this time
KINF 281955Z AUTO 17007KT 7SM SCT065 SCT090 35/20 A3003 RMK AO2

Conditions at: KINF observed 28 April 2017  19:35 UTC
Temperature: 35.0°C (95°F)
Dewpoint: 20.0°C (68°F) [RH = 42%]
Pressure (altimeter): 30.03 inches Hg (1017.0 mb)
Winds: from the E (100 degrees) at 7 MPH (6 knots; 3.1 m/s)
Visibility: 10 or more miles (16+ km)
Ceiling: at least 12,000 feet AGL
Clouds: scattered clouds at 6500 feet AGL
Present Weather: automated observation with no human augmentation;
there may or may not be significant weather present at this time
KINF 281935Z AUTO 10006KT 10SM SCT065 35/20 A3003 RMK AO2

Conditions at: KINF observed 28 April 2017  19:15 UTC
Temperature: 35.0°C (95°F)
Dewpoint: 20.0°C (68°F) [RH = 42%]
Pressure (altimeter): 30.03 inches Hg (1017.0 mb)
Winds: from the ESE (120 degrees) at 3 MPH (3 knots; 1.6 m/s)
Visibility: 7 miles (11 km)
Ceiling: at least 12,000 feet AGL
Clouds: scattered clouds at 8000 feet AGL
Present Weather: automated observation with no human augmentation;
there may or may not be significant weather present at this time
KINF 281915Z AUTO 12003KT 7SM SCT080 35/20 A3003 RMK AO2

Conditions at: KINF observed 28 April 2017  18:55 UTC
Temperature: 35.0°C (95°F)
Dewpoint: 20.0°C (68°F) [RH = 42%]
Pressure (altimeter): 30.04 inches Hg (1017.4 mb)
Winds: from the SE (140 degrees) at 7 MPH (6 knots; 3.1 m/s)
Visibility: 10 or more miles (16+ km)
Ceiling: at least 12,000 feet AGL
Clouds: scattered clouds at 6000 feet AGL
scattered clouds at 8000 feet AGL
Present Weather: automated observation with no human augmentation;
there may or may not be significant weather present at this time
KINF 281855Z AUTO 14006KT 10SM SCT060 SCT080 35/20 A3004 RMK AO2

Conditions at: KINF observed 28 April 2017  18:35 UTC
Temperature: 35.0°C (95°F)
Dewpoint: 20.0°C (68°F) [RH = 42%]
Pressure (altimeter): 30.05 inches Hg (1017.7 mb)
Winds: from the S (170 degrees) at 8 MPH (7 knots; 3.6 m/s)
Visibility: 10 or more miles (16+ km)
Ceiling: at least 12,000 feet AGL
Clouds: scattered clouds at 6000 feet AGL
Present Weather: automated observation with no human augmentation;
there may or may not be significant weather present at this time
KINF 281835Z AUTO 17007KT 120V230 10SM SCT060 35/20 A3005 RMK AO2

Conditions at: KINF observed 28 April 2017  18:15 UTC
Temperature: 35.0°C (95°F)
Dewpoint: 20.0°C (68°F) [RH = 42%]
Pressure (altimeter): 30.06 inches Hg (1018.0 mb)
Winds: from the ESE (110 degrees) at 8 MPH (7 knots; 3.6 m/s)
Visibility: 10 or more miles (16+ km)
Ceiling: at least 12,000 feet AGL
Clouds: scattered clouds at 6000 feet AGL
Present Weather: automated observation with no human augmentation;
there may or may not be significant weather present at this time
KINF 281815Z AUTO 11007KT 10SM SCT060 35/20 A3006 RMK AO2

Conditions at: KINF observed 28 April 2017  17:55 UTC
Temperature: 34.0°C (93°F)
Dewpoint: 21.0°C (70°F) [RH = 47%]
Pressure (altimeter): 30.06 inches Hg (1018.0 mb)
Winds: from the S (190 degrees) at 10 MPH (9 knots; 4.7 m/s)
gusting to 17 MPH (15 knots; 7.8 m/s)
Visibility: 7 miles (11 km)
Ceiling: at least 12,000 feet AGL
Clouds: scattered clouds at 6000 feet AGL
Present Weather: automated observation with no human augmentation;
there may or may not be significant weather present at this time
KINF 281755Z AUTO 19009G15KT 7SM SCT060 34/21 A3006 RMK AO2

Conditions at: KINF observed 28 April 2017  17:35 UTC
Temperature: 34.0°C (93°F)
Dewpoint: 21.0°C (70°F) [RH = 47%]
Pressure (altimeter): 30.06 inches Hg (1018.0 mb)
Winds: from the S (180 degrees) at 9 MPH (8 knots; 4.2 m/s)
Visibility: 7 miles (11 km)
Ceiling: at least 12,000 feet AGL
Clouds: scattered clouds at 5000 feet AGL
Present Weather: automated observation with no human augmentation;
there may or may not be significant weather present at this time
KINF 281735Z AUTO 18008KT 7SM SCT050 34/21 A3006 RMK AO2

Conditions at: KINF observed 28 April 2017  17:15 UTC
Temperature: 33.0°C (91°F)
Dewpoint: 21.0°C (70°F) [RH = 49%]
Pressure (altimeter): 30.07 inches Hg (1018.4 mb)
Winds: from the SSE (160 degrees) at 8 MPH (7 knots; 3.6 m/s)
Visibility: 10 or more miles (16+ km)
Ceiling: at least 12,000 feet AGL
Clouds: scattered clouds at 5000 feet AGL
Present Weather: automated observation with no human augmentation;
there may or may not be significant weather present at this time
KINF 281715Z AUTO 16007KT 10SM SCT050 33/21 A3007 RMK AO2

Conditions at: KINF observed 28 April 2017  16:55 UTC
Temperature: 33.0°C (91°F)
Dewpoint: 21.0°C (70°F) [RH = 49%]
Pressure (altimeter): 30.07 inches Hg (1018.4 mb)
Winds: from the ESE (120 degrees) at 7 MPH (6 knots; 3.1 m/s)
Visibility: 7 miles (11 km)
Ceiling: at least 12,000 feet AGL
Clouds: scattered clouds at 4800 feet AGL
Present Weather: automated observation with no human augmentation;
there may or may not be significant weather present at this time
KINF 281655Z AUTO 12006KT 7SM SCT048 33/21 A3007 RMK AO2

Conditions at: KINF observed 28 April 2017  16:35 UTC
Temperature: 32.0°C (90°F)
Dewpoint: 21.0°C (70°F) [RH = 52%]
Pressure (altimeter): 30.07 inches Hg (1018.4 mb)
Winds: from the S (170 degrees) at 10 MPH (9 knots; 4.7 m/s)
gusting to 18 MPH (16 knots; 8.3 m/s)
Visibility: 7 miles (11 km)
Ceiling: at least 12,000 feet AGL
Clouds: scattered clouds at 4600 feet AGL
Present Weather: automated observation with no human augmentation;
there may or may not be significant weather present at this time
KINF 281635Z AUTO 17009G16KT 7SM SCT046 32/21 A3007 RMK AO2

Conditions at: KINF observed 28 April 2017  16:15 UTC
Temperature: 32.0°C (90°F)
Dewpoint: 22.0°C (72°F) [RH = 56%]
Pressure (altimeter): 30.08 inches Hg (1018.7 mb)
Winds: from the SSE (160 degrees) at 9 MPH (8 knots; 4.2 m/s)
Visibility: 4 miles (6 km)
Ceiling: at least 12,000 feet AGL
Clouds: scattered clouds at 4000 feet AGL
Present Weather: HZ  (haze)
KINF 281615Z AUTO 16008KT 4SM HZ SCT040 32/22 A3008 RMK AO2

Conditions at: KINF observed 28 April 2017  15:55 UTC
Temperature: 32.0°C (90°F)
Dewpoint: 22.0°C (72°F) [RH = 56%]
Pressure (altimeter): 30.08 inches Hg (1018.7 mb)
Winds: from the SSE (150 degrees) at 9 MPH (8 knots; 4.2 m/s)
Visibility: 7 miles (11 km)
Ceiling: at least 12,000 feet AGL
Clouds: scattered clouds at 4000 feet AGL
Present Weather: automated observation with no human augmentation;
there may or may not be significant weather present at this time
KINF 281555Z AUTO 15008KT 7SM SCT040 32/22 A3008 RMK AO2

Conditions at: KINF observed 28 April 2017  15:35 UTC
Temperature: 31.0°C (88°F)
Dewpoint: 22.0°C (72°F) [RH = 59%]
Pressure (altimeter): 30.08 inches Hg (1018.7 mb)
Winds: from the SE (140 degrees) at 12 MPH (10 knots; 5.2 m/s)
Visibility: 7 miles (11 km)
Ceiling: at least 12,000 feet AGL
Clouds: sky clear below 12,000 feet AGL
Present Weather: automated observation with no human augmentation;
there may or may not be significant weather present at this time
KINF 281535Z AUTO 14010KT 7SM CLR 31/22 A3008 RMK AO2

Conditions at: KINF observed 28 April 2017  15:15 UTC
Temperature: 31.0°C (88°F)
Dewpoint: 22.0°C (72°F) [RH = 59%]
Pressure (altimeter): 30.08 inches Hg (1018.7 mb)
Winds: from the S (180 degrees) at 12 MPH (10 knots; 5.2 m/s)
gusting to 18 MPH (16 knots; 8.3 m/s)
Visibility: 7 miles (11 km)
Ceiling: at least 12,000 feet AGL
Clouds: scattered clouds at 3400 feet AGL
Present Weather: automated observation with no human augmentation;
there may or may not be significant weather present at this time
KINF 281515Z AUTO 18010G16KT 7SM SCT034 31/22 A3008 RMK AO2